Time;durP1;ratioP1;P1;durP2;ratioP2;P2;SDS_P1;SDS_P2;PMS_P1;PMS_P2;Temp;Humidity;BMP_temperature;BMP_pressure;BME280_temperature;BME280_humidity;BME280_pressure;Samples;Min_cycle;Max_cycle;Signal;HPM_P1;HPM_P2
2023/11/08 00:00:13;;;;;;;17.10;4.85;;;11.80;98.20;;;;;;7378693;19;20374;-73
2023/11/08 00:02:42;;;;;;;9.40;3.90;;;11.80;98.20;;;;;;7378815;19;20014;-73
2023/11/08 00:05:11;;;;;;;9.85;3.50;;;11.90;98.20;;;;;;7380434;19;20011;-72
2023/11/08 00:07:40;;;;;;;44.85;7.35;;;11.90;98.10;;;;;;7399666;19;20611;-73
2023/11/08 00:10:12;;;;;;;11.20;4.65;;;11.90;98.10;;;;;;7378102;19;20366;-72
2023/11/08 00:12:43;;;;;;;;;;;12.00;98.20;;;;;;7378933;19;20007;-73
2023/11/08 00:15:13;;;;;;;9.20;4.30;;;11.90;98.20;;;;;;7377984;19;20361;-73
2023/11/08 00:17:42;;;;;;;11.00;4.35;;;11.90;98.10;;;;;;7378280;19;20243;-72
2023/11/08 00:20:12;;;;;;;13.65;4.70;;;11.90;98.20;;;;;;7378264;19;20017;-72
2023/11/08 00:22:44;;;;;;;30.02;5.63;;;11.80;98.30;;;;;;7399700;19;20006;-72
2023/11/08 00:25:14;;;;;;;18.58;5.90;;;11.80;98.50;;;;;;7377765;19;20006;-72
2023/11/08 00:27:46;;;;;;;14.52;4.95;;;11.90;98.60;;;;;;7379927;19;20028;-72
2023/11/08 00:30:15;;;;;;;17.42;4.90;;;11.80;98.50;;;;;;7385695;19;20023;-72
2023/11/08 00:32:44;;;;;;;16.50;5.47;;;11.80;98.50;;;;;;7384399;19;20002;-73
2023/11/08 00:35:12;;;;;;;11.73;5.47;;;11.80;98.60;;;;;;7384752;19;20261;-72
2023/11/08 00:37:41;;;;;;;17.23;5.22;;;12.00;98.60;;;;;;7405148;19;20018;-72
2023/11/08 00:40:11;;;;;;;15.90;5.82;;;12.00;98.50;;;;;;7384695;19;20685;-73
2023/11/08 00:42:40;;;;;;;14.85;5.22;;;11.90;98.40;;;;;;7385115;19;20366;-72
2023/11/08 00:45:12;;;;;;;18.88;6.97;;;11.90;98.40;;;;;;7385331;19;20061;-72
2023/11/08 00:47:43;;;;;;;18.88;5.70;;;11.90;98.70;;;;;;7385402;19;20068;-72
2023/11/08 00:50:12;;;;;;;7.53;4.35;;;12.00;98.60;;;;;;7385012;19;20009;-71
2023/11/08 00:52:41;;;;;;;14.23;6.10;;;12.10;98.50;;;;;;7406388;19;20007;-73
2023/11/08 00:55:10;;;;;;;11.77;5.82;;;12.10;98.40;;;;;;7383477;19;20406;-73
2023/11/08 00:57:39;;;;;;;14.18;5.60;;;12.00;98.20;;;;;;7382249;19;20066;-72
2023/11/08 01:00:14;;;;;;;18.48;5.75;;;11.80;98.60;;;;;;7384633;19;20251;-71
2023/11/08 01:02:44;;;;;;;16.05;5.65;;;11.80;98.50;;;;;;7387246;19;20006;-71
2023/11/08 01:05:13;;;;;;;16.02;5.80;;;12.00;98.60;;;;;;7385769;19;20031;-72
2023/11/08 01:07:42;;;;;;;23.83;6.25;;;11.90;98.50;;;;;;7405967;19;20027;-72
2023/11/08 01:10:11;;;;;;;19.52;6.78;;;11.80;98.50;;;;;;7383820;19;20006;-71
2023/11/08 01:12:39;;;;;;;14.73;5.72;;;11.90;98.60;;;;;;7384180;19;20003;-72
2023/11/08 01:15:12;;;;;;;17.30;6.72;;;11.80;98.50;;;;;;7383614;19;20094;-73
2023/11/08 01:17:40;;;;;;;16.15;5.68;;;11.60;98.80;;;;;;7383948;19;20007;-73
2023/11/08 01:20:10;;;;;;;14.05;6.82;;;11.80;98.80;;;;;;7383714;19;20478;-73
2023/11/08 01:22:39;;;;;;;20.92;7.32;;;11.90;98.70;;;;;;7405211;19;20224;-73
2023/11/08 01:25:09;;;;;;;17.48;6.13;;;12.00;98.70;;;;;;7383341;19;20006;-73
2023/11/08 01:27:38;;;;;;;15.00;6.07;;;12.10;98.60;;;;;;7383484;19;20007;-72
2023/11/08 01:30:08;;;;;;;16.70;6.13;;;12.10;98.30;;;;;;7383916;19;20002;-73
2023/11/08 01:32:39;;;;;;;27.10;6.15;;;11.90;98.30;;;;;;7383926;19;20034;-73
2023/11/08 01:35:09;;;;;;;23.90;6.70;;;11.80;98.60;;;;;;7383622;19;20228;-73
2023/11/08 01:37:39;;;;;;;24.70;7.28;;;11.90;98.60;;;;;;7403137;19;20014;-73
2023/11/08 01:40:10;;;;;;;14.60;5.97;;;11.90;98.60;;;;;;7380287;19;20031;-73
2023/11/08 01:42:38;;;;;;;11.55;6.30;;;12.00;98.50;;;;;;7383437;19;20013;-73
2023/11/08 01:45:09;;;;;;;16.15;5.78;;;11.80;98.60;;;;;;7383169;19;20015;-72
2023/11/08 01:47:42;;;;;;;16.05;6.25;;;11.80;98.50;;;;;;7383489;19;20007;-73
2023/11/08 01:50:11;;;;;;;16.60;6.22;;;11.80;98.70;;;;;;7383329;19;20007;-72
2023/11/08 01:52:41;;;;;;;20.15;5.95;;;11.80;98.60;;;;;;7404724;19;20010;-73
2023/11/08 01:55:11;;;;;;;15.75;6.07;;;11.70;98.60;;;;;;7381719;19;20078;-73
2023/11/08 01:57:40;;;;;;;14.73;6.10;;;11.70;98.80;;;;;;7383891;19;20019;-73
2023/11/08 02:00:11;;;;;;;16.92;6.72;;;11.80;98.60;;;;;;7381476;19;20068;-72
2023/11/08 02:02:46;;;;;;;;;;;11.90;98.70;;;;;;7383992;19;20009;-72
2023/11/08 02:05:15;;;;;;;18.80;5.40;;;12.00;99.10;;;;;;7383463;19;20219;-72
2023/11/08 02:07:43;;;;;;;18.13;5.95;;;11.90;98.50;;;;;;7404458;19;20003;-72
2023/11/08 02:10:15;;;;;;;12.82;5.97;;;11.70;98.60;;;;;;7383194;19;20007;-73
2023/11/08 02:12:47;;;;;;;15.02;6.00;;;11.80;98.70;;;;;;7382828;19;20362;-72
2023/11/08 02:15:16;;;;;;;13.02;5.18;;;11.90;98.70;;;;;;7382135;19;20311;-72
2023/11/08 02:17:48;;;;;;;14.85;5.53;;;12.00;98.70;;;;;;7382118;19;20232;-72
2023/11/08 02:20:17;;;;;;;10.82;5.40;;;11.90;98.60;;;;;;7382418;19;20032;-72
2023/11/08 02:22:46;;;;;;;16.23;6.03;;;12.00;98.70;;;;;;7403534;19;20027;-72
2023/11/08 02:25:19;;;;;;;15.02;6.65;;;11.90;98.60;;;;;;7381189;19;20070;-72
2023/11/08 02:27:48;;;;;;;19.23;6.15;;;11.70;98.80;;;;;;7381555;19;20010;-72
2023/11/08 02:30:17;;;;;;;17.52;5.53;;;11.50;99.10;;;;;;7381536;19;20002;-72
2023/11/08 02:32:46;;;;;;;13.23;5.38;;;11.70;99.10;;;;;;7381565;19;20398;-72
2023/11/08 02:35:14;;;;;;;14.13;5.70;;;11.80;99.00;;;;;;7380955;19;20234;-72
2023/11/08 02:37:44;;;;;;;13.75;5.13;;;11.90;98.90;;;;;;7401322;19;20011;-72
2023/11/08 02:40:14;;;;;;;16.33;5.85;;;12.00;98.80;;;;;;7380932;19;20023;-72
2023/11/08 02:42:47;;;;;;;12.48;5.13;;;11.90;98.70;;;;;;7381034;19;20106;-72
2023/11/08 02:45:16;;;;;;;17.40;5.03;;;11.70;98.90;;;;;;7381192;19;20110;-72
2023/11/08 02:47:45;;;;;;;17.13;5.20;;;11.70;99.00;;;;;;7382008;19;20006;-72
2023/11/08 02:50:14;;;;;;;14.45;5.18;;;11.90;98.90;;;;;;7380552;19;20059;-72
2023/11/08 02:52:43;;;;;;;17.70;5.68;;;12.00;98.80;;;;;;7403181;19;20002;-72
2023/11/08 02:55:12;;;;;;;9.90;5.40;;;12.00;98.60;;;;;;7383760;19;20051;-72
2023/11/08 02:57:42;;;;;;;20.77;6.50;;;12.00;98.60;;;;;;7379801;19;20079;-72
2023/11/08 03:00:15;;;;;;;13.55;5.40;;;12.10;98.60;;;;;;7380808;19;20077;-72
2023/11/08 03:02:44;;;;;;;11.63;5.50;;;12.00;98.70;;;;;;7380894;19;20013;-72
2023/11/08 03:05:12;;;;;;;17.45;5.97;;;12.00;98.60;;;;;;7380248;19;20220;-72
2023/11/08 03:07:42;;;;;;;17.30;5.55;;;11.80;98.70;;;;;;7402139;19;20014;-72
2023/11/08 03:10:17;;;;;;;22.00;6.28;;;11.90;98.80;;;;;;7380134;19;20006;-72
2023/11/08 03:12:50;;;;;;;11.90;4.97;;;12.00;98.70;;;;;;7381112;19;20002;-72
2023/11/08 03:15:22;;;;;;;18.13;6.85;;;11.90;98.70;;;;;;7380166;19;20017;-71
2023/11/08 03:17:53;;;;;;;24.27;5.57;;;12.00;98.60;;;;;;7378921;19;20478;-72
2023/11/08 03:20:23;;;;;;;13.07;5.10;;;12.00;98.50;;;;;;7380634;19;20381;-72
2023/11/08 03:22:53;;;;;;;11.82;4.75;;;12.00;98.60;;;;;;7400580;19;20303;-72
2023/11/08 03:25:22;;;;;;;19.98;5.95;;;12.00;98.50;;;;;;7379202;19;20065;-72
2023/11/08 03:27:50;;;;;;;18.58;5.35;;;11.90;98.60;;;;;;7379214;19;20075;-72
2023/11/08 03:30:22;;;;;;;14.95;5.18;;;11.90;98.70;;;;;;7379726;19;20058;-72
2023/11/08 03:32:50;;;;;;;16.92;5.47;;;11.90;98.70;;;;;;7379707;19;20031;-72
2023/11/08 03:35:19;;;;;;;13.23;5.35;;;12.00;99.00;;;;;;7379716;19;20011;-72
2023/11/08 03:37:48;;;;;;;15.02;5.68;;;12.10;98.60;;;;;;7399278;19;20070;-72
2023/11/08 03:40:17;;;;;;;15.70;4.78;;;12.00;98.50;;;;;;7378833;19;20062;-72
2023/11/08 03:42:49;;;;;;;12.43;6.03;;;11.90;98.60;;;;;;7379093;19;20018;-72
2023/11/08 03:45:20;;;;;;;13.20;5.57;;;11.90;98.50;;;;;;7379143;19;20007;-72
2023/11/08 03:47:49;;;;;;;14.77;5.30;;;11.80;98.60;;;;;;7379552;19;20006;-73
2023/11/08 03:50:17;;;;;;;21.80;5.53;;;11.80;98.70;;;;;;7379798;19;20402;-73
2023/11/08 03:52:46;;;;;;;14.63;4.85;;;11.80;98.80;;;;;;7400622;19;20070;-73
2023/11/08 03:55:15;;;;;;;15.77;4.88;;;11.80;99.20;;;;;;7378594;19;20003;-73
2023/11/08 03:57:44;;;;;;;10.10;4.95;;;11.70;98.90;;;;;;7378544;19;20007;-73
2023/11/08 04:00:14;;;;;;;13.15;5.43;;;11.70;99.10;;;;;;7377846;19;20290;-73
2023/11/08 04:02:45;;;;;;;13.33;5.27;;;11.70;98.80;;;;;;7377283;19;20035;-72
2023/11/08 04:05:14;;;;;;;26.73;6.03;;;11.70;99.00;;;;;;7378838;19;20010;-72
2023/11/08 04:07:44;;;;;;;15.10;4.97;;;11.50;99.10;;;;;;7398446;19;20010;-72
2023/11/08 04:10:14;;;;;;;12.32;5.90;;;11.70;99.00;;;;;;7378096;19;20024;-72
2023/11/08 04:12:42;;;;;;;13.05;5.10;;;11.80;98.90;;;;;;7378111;19;20009;-72
2023/11/08 04:15:12;;;;;;;13.30;5.82;;;11.90;98.90;;;;;;7378775;19;20024;-72
2023/11/08 04:17:41;;;;;;;13.00;4.88;;;12.00;98.70;;;;;;7377597;19;20007;-72
2023/11/08 04:20:14;;;;;;;9.48;4.60;;;11.80;98.30;;;;;;7378085;19;20011;-72
2023/11/08 04:22:44;;;;;;;12.32;5.05;;;11.80;98.50;;;;;;7400666;19;20010;-72
2023/11/08 04:25:13;;;;;;;16.30;5.20;;;11.90;98.40;;;;;;7377143;19;20246;-72
2023/11/08 04:27:42;;;;;;;16.98;4.93;;;11.90;98.30;;;;;;7377682;19;20007;-72
2023/11/08 04:30:13;;;;;;;9.18;4.97;;;11.60;98.30;;;;;;7377750;19;20007;-73
2023/11/08 04:32:43;;;;;;;14.23;5.38;;;11.70;98.40;;;;;;7377963;19;20405;-72
2023/11/08 04:35:17;;;;;;;17.33;5.70;;;11.80;98.40;;;;;;7378390;19;20006;-73
2023/11/08 04:37:45;;;;;;;14.68;5.53;;;11.80;98.40;;;;;;7398630;19;20011;-73
2023/11/08 04:40:18;;;;;;;10.45;5.53;;;11.90;98.40;;;;;;7376988;19;20020;-72
2023/11/08 04:42:46;;;;;;;21.88;5.38;;;11.90;98.40;;;;;;7377511;19;20316;-72
2023/11/08 04:45:15;;;;;;;11.07;5.00;;;11.90;98.30;;;;;;7377704;19;20023;-72
2023/11/08 04:47:44;;;;;;;8.20;4.50;;;11.80;98.30;;;;;;7380014;19;20062;-72
2023/11/08 04:50:15;;;;;;;11.05;4.60;;;11.80;98.40;;;;;;7377725;19;20010;-71
2023/11/08 04:52:44;;;;;;;16.90;4.97;;;11.80;98.40;;;;;;7399329;19;20003;-72
2023/11/08 04:55:12;;;;;;;12.55;4.78;;;11.80;98.30;;;;;;7376808;19;19999;-72
2023/11/08 04:57:41;;;;;;;17.25;5.20;;;11.70;98.40;;;;;;7377668;19;20014;-72
2023/11/08 05:00:12;;;;;;;13.68;4.78;;;11.70;98.50;;;;;;7377873;19;20003;-71
2023/11/08 05:02:41;;;;;;;14.45;5.22;;;11.80;98.50;;;;;;7377206;19;20003;-72
2023/11/08 05:05:14;;;;;;;14.10;4.22;;;11.90;98.40;;;;;;7377785;19;20062;-72
2023/11/08 05:07:46;;;;;;;15.35;5.43;;;11.90;98.40;;;;;;7398170;19;20265;-72
2023/11/08 05:10:15;;;;;;;17.45;7.22;;;12.00;98.30;;;;;;7376570;19;20007;-71
2023/11/08 05:12:44;;;;;;;12.40;6.20;;;12.10;98.40;;;;;;7376892;19;20018;-72
2023/11/08 05:15:13;;;;;;;19.65;6.70;;;12.10;98.30;;;;;;7383025;19;20365;-72
2023/11/08 05:17:43;;;;;;;17.00;6.40;;;12.10;98.10;;;;;;7383269;19;20070;-72
2023/11/08 05:20:14;;;;;;;17.23;5.78;;;12.10;98.10;;;;;;7384210;19;20003;-71
2023/11/08 05:22:45;;;;;;;;;;;12.10;98.20;;;;;;7406145;19;20324;-71
2023/11/08 05:25:14;;;;;;;27.63;6.72;;;12.00;98.10;;;;;;7383490;19;20578;-72
2023/11/08 05:27:43;;;;;;;11.25;5.85;;;12.10;98.00;;;;;;7383331;19;20275;-72
2023/11/08 05:30:15;;;;;;;13.13;5.72;;;11.80;98.20;;;;;;7383749;19;20358;-72
2023/11/08 05:32:44;;;;;;;13.27;6.18;;;11.90;98.30;;;;;;7383429;19;20449;-73
2023/11/08 05:35:14;;;;;;;11.52;6.30;;;12.00;98.30;;;;;;7381434;19;20066;-74
2023/11/08 05:37:47;;;;;;;15.90;6.68;;;12.00;98.20;;;;;;7403629;19;20011;-74
2023/11/08 05:40:16;;;;;;;25.70;11.65;;;12.10;98.20;;;;;;7382495;19;20031;-72
2023/11/08 05:42:45;;;;;;;18.83;7.57;;;12.10;98.10;;;;;;7384222;19;20048;-73
2023/11/08 05:45:14;;;;;;;15.95;7.22;;;12.20;98.10;;;;;;7381996;19;20010;-73
2023/11/08 05:47:44;;;;;;;17.67;6.40;;;12.10;98.00;;;;;;7381844;19;20010;-72
2023/11/08 05:50:13;;;;;;;15.23;7.55;;;12.00;98.10;;;;;;7383940;19;20018;-72
2023/11/08 05:52:45;;;;;;;14.15;7.10;;;12.00;98.20;;;;;;7401836;19;20240;-73
2023/11/08 05:55:13;;;;;;;;;;;12.00;98.20;;;;;;7382860;19;20084;-74
2023/11/08 05:57:42;;;;;;;16.45;6.60;;;12.10;98.20;;;;;;7380978;19;19903;-74
2023/11/08 06:00:14;;;;;;;10.65;6.85;;;12.10;98.10;;;;;;7383084;19;20007;-74
2023/11/08 06:02:42;;;;;;;15.27;7.03;;;12.10;98.10;;;;;;7382802;19;20418;-74
2023/11/08 06:05:11;;;;;;;14.02;6.95;;;12.00;98.00;;;;;;7382466;19;20024;-75
2023/11/08 06:07:41;;;;;;;15.65;7.43;;;12.00;98.00;;;;;;7403812;19;20063;-73
2023/11/08 06:10:13;;;;;;;14.60;7.05;;;12.00;98.10;;;;;;7381913;19;20011;-73
2023/11/08 06:12:42;;;;;;;16.38;7.45;;;12.10;98.20;;;;;;7382537;19;20010;-73
2023/11/08 06:15:12;;;;;;;16.02;6.50;;;12.10;98.10;;;;;;7382310;19;20012;-74
2023/11/08 06:17:40;;;;;;;21.75;6.75;;;12.10;98.10;;;;;;7385191;19;20006;-74
2023/11/08 06:20:11;;;;;;;15.98;8.02;;;12.10;97.80;;;;;;7382363;19;20018;-74
2023/11/08 06:22:40;;;;;;;15.73;6.28;;;12.10;97.70;;;;;;7401050;19;20003;-74
2023/11/08 06:25:09;;;;;;;12.35;5.85;;;12.10;97.80;;;;;;7379943;19;20070;-74
2023/11/08 06:27:40;;;;;;;10.52;5.20;;;12.10;97.70;;;;;;7381762;19;20381;-74
2023/11/08 06:30:11;;;;;;;10.90;5.75;;;12.10;97.70;;;;;;7381809;19;20019;-74
2023/11/08 06:32:40;;;;;;;13.80;6.05;;;12.10;97.70;;;;;;7382245;19;20031;-74
2023/11/08 06:35:09;;;;;;;24.30;6.05;;;11.90;97.40;;;;;;7381332;19;20272;-73
2023/11/08 06:37:38;;;;;;;14.15;5.80;;;11.90;97.50;;;;;;7400528;19;20003;-74
2023/11/08 06:40:09;;;;;;;9.80;4.68;;;11.90;97.50;;;;;;7384242;19;20002;-73
2023/11/08 06:42:41;;;;;;;11.52;5.97;;;11.80;97.60;;;;;;7381316;19;20019;-73
2023/11/08 06:45:11;;;;;;;10.45;5.80;;;11.70;97.70;;;;;;7380788;19;20007;-73
2023/11/08 06:47:39;;;;;;;8.43;5.03;;;11.70;97.90;;;;;;7380989;19;20451;-73
2023/11/08 06:50:10;;;;;;;8.02;4.90;;;11.80;97.80;;;;;;7380963;19;20010;-73
2023/11/08 06:52:39;;;;;;;12.75;5.63;;;11.80;97.80;;;;;;7402685;19;20017;-73
2023/11/08 06:55:08;;;;;;;13.00;5.30;;;11.80;97.80;;;;;;7380495;19;20404;-74
2023/11/08 06:57:41;;;;;;;11.55;5.10;;;11.70;97.80;;;;;;7380148;19;20006;-74
2023/11/08 07:00:14;;;;;;;9.00;5.45;;;11.50;98.00;;;;;;7380863;19;20389;-74
2023/11/08 07:02:42;;;;;;;7.82;4.65;;;11.70;98.10;;;;;;7381382;19;20011;-74
2023/11/08 07:05:12;;;;;;;20.98;6.07;;;11.70;98.10;;;;;;7380504;19;20024;-74
2023/11/08 07:07:42;;;;;;;21.00;6.05;;;11.80;98.10;;;;;;7401856;19;20008;-74
2023/11/08 07:10:12;;;;;;;10.55;5.85;;;11.80;98.00;;;;;;7380006;19;19999;-73
2023/11/08 07:12:43;;;;;;;18.15;6.53;;;11.90;97.90;;;;;;7379885;19;20365;-74
2023/11/08 07:15:12;;;;;;;;;;;11.90;97.90;;;;;;7380805;19;20761;-73
2023/11/08 07:17:41;;;;;;;12.23;7.40;;;11.90;97.80;;;;;;7380227;19;19903;-73
2023/11/08 07:20:10;;;;;;;14.45;6.57;;;11.90;97.90;;;;;;7379755;19;20075;-73
2023/11/08 07:22:39;;;;;;;12.27;5.57;;;11.90;98.00;;;;;;7401103;19;20007;-74
2023/11/08 07:25:09;;;;;;;16.60;6.05;;;11.90;98.30;;;;;;7379032;19;20007;-74
2023/11/08 07:27:38;;;;;;;14.88;6.20;;;11.90;98.20;;;;;;7379585;19;20023;-74
2023/11/08 07:30:14;;;;;;;16.50;6.47;;;11.90;97.90;;;;;;7379895;19;20020;-74
2023/11/08 07:32:45;;;;;;;15.68;6.03;;;11.70;98.00;;;;;;7380476;19;20036;-74
2023/11/08 07:35:14;;;;;;;10.15;5.32;;;11.80;98.10;;;;;;7382518;19;20354;-74
2023/11/08 07:37:43;;;;;;;8.00;4.82;;;11.80;97.90;;;;;;7398293;19;20010;-74
2023/11/08 07:40:14;;;;;;;12.75;5.60;;;11.90;98.00;;;;;;7379894;19;20023;-73
2023/11/08 07:42:43;;;;;;;8.23;4.75;;;12.00;97.70;;;;;;7381494;19;20393;-74
2023/11/08 07:45:14;;;;;;;14.82;5.20;;;11.90;97.60;;;;;;7380379;19;20039;-74
2023/11/08 07:47:43;;;;;;;;;;;12.00;97.70;;;;;;7381566;19;20131;-74
2023/11/08 07:50:14;;;;;;;16.85;6.00;;;12.00;97.60;;;;;;7379094;19;20459;-74
2023/11/08 07:52:42;;;;;;;8.03;5.27;;;12.10;97.70;;;;;;7400254;19;20244;-73
2023/11/08 07:55:13;;;;;;;8.82;5.03;;;12.20;97.70;;;;;;7378416;19;20235;-73
2023/11/08 07:57:43;;;;;;;12.20;5.50;;;12.10;97.50;;;;;;7378061;19;20007;-74
2023/11/08 08:00:17;;;;;;;10.77;4.70;;;12.10;97.40;;;;;;7378602;19;20006;-73
2023/11/08 08:02:45;;;;;;;12.05;5.00;;;12.10;97.40;;;;;;7379082;19;20019;-73
2023/11/08 08:05:15;;;;;;;10.77;5.10;;;12.10;97.60;;;;;;7378739;19;20010;-73
2023/11/08 08:07:44;;;;;;;14.60;6.03;;;12.10;97.50;;;;;;7400123;19;20032;-73
2023/11/08 08:10:13;;;;;;;12.27;5.45;;;12.10;97.40;;;;;;7377955;19;20246;-73
2023/11/08 08:12:42;;;;;;;12.55;5.47;;;12.10;97.40;;;;;;7378063;19;20060;-75
2023/11/08 08:15:16;;;;;;;15.07;5.80;;;12.20;97.50;;;;;;7378537;19;20002;-74
2023/11/08 08:17:45;;;;;;;14.00;6.38;;;12.20;97.50;;;;;;7377991;19;20003;-74
2023/11/08 08:20:14;;;;;;;16.77;7.20;;;12.10;97.50;;;;;;7378206;19;20008;-74
2023/11/08 08:22:42;;;;;;;14.52;7.63;;;12.10;97.70;;;;;;7399743;19;20007;-74
2023/11/08 08:25:12;;;;;;;14.57;6.85;;;12.20;97.70;;;;;;7377312;19;20315;-75
2023/11/08 08:27:41;;;;;;;12.93;6.07;;;12.20;97.80;;;;;;7377694;19;20381;-74
2023/11/08 08:30:14;;;;;;;11.85;6.20;;;12.20;97.70;;;;;;7378236;19;20018;-74
2023/11/08 08:32:47;;;;;;;13.65;5.78;;;12.20;97.60;;;;;;7380853;19;20029;-74
2023/11/08 08:35:17;;;;;;;15.07;6.20;;;12.10;97.70;;;;;;7377985;19;20007;-74
2023/11/08 08:37:46;;;;;;;13.13;5.90;;;12.10;97.70;;;;;;7397788;19;20028;-74
2023/11/08 08:40:14;;;;;;;17.58;5.68;;;12.10;97.60;;;;;;7376900;19;20295;-74
2023/11/08 08:42:44;;;;;;;12.50;6.15;;;12.20;97.80;;;;;;7377073;19;20260;-74
2023/11/08 08:45:13;;;;;;;9.93;5.70;;;12.20;97.70;;;;;;7377819;19;20010;-73
2023/11/08 08:47:45;;;;;;;14.63;5.35;;;12.30;97.70;;;;;;7377274;19;20017;-73
2023/11/08 08:50:14;;;;;;;13.65;5.60;;;12.30;97.60;;;;;;7383847;19;20003;-74
2023/11/08 08:52:44;;;;;;;14.85;6.43;;;12.40;97.50;;;;;;7406158;19;20024;-74
2023/11/08 08:55:13;;;;;;;13.80;5.05;;;12.40;97.40;;;;;;7383732;19;20032;-74
2023/11/08 08:57:46;;;;;;;12.98;6.15;;;12.50;97.40;;;;;;7383895;19;20018;-73
2023/11/08 09:00:19;;;;;;;10.88;6.45;;;12.40;97.40;;;;;;7384655;19;20048;-74
2023/11/08 09:02:50;;;;;;;12.38;5.97;;;12.40;97.40;;;;;;7384370;19;20002;-73
2023/11/08 09:05:20;;;;;;;14.93;6.57;;;12.40;97.50;;;;;;7382802;19;20011;-75
2023/11/08 09:07:50;;;;;;;21.33;5.85;;;12.50;97.60;;;;;;7406164;19;20103;-74
2023/11/08 09:10:20;;;;;;;17.92;6.38;;;12.50;97.50;;;;;;7383567;19;20267;-74
2023/11/08 09:12:49;;;;;;;14.30;5.88;;;12.50;97.40;;;;;;7384306;19;20009;-74
2023/11/08 09:15:18;;;;;;;14.65;6.43;;;12.60;97.50;;;;;;7384180;19;20083;-74
2023/11/08 09:17:49;;;;;;;11.65;6.15;;;12.60;97.40;;;;;;7383662;19;19999;-74
2023/11/08 09:20:18;;;;;;;13.27;6.43;;;12.60;97.30;;;;;;7384319;19;20015;-74
2023/11/08 09:22:47;;;;;;;12.90;5.82;;;12.70;97.20;;;;;;7405466;19;20014;-74
2023/11/08 09:25:17;;;;;;;15.88;5.85;;;12.50;97.00;;;;;;7383634;19;20391;-75
2023/11/08 09:27:46;;;;;;;14.88;5.38;;;12.50;97.20;;;;;;7388713;19;20002;-73
2023/11/08 09:30:16;;;;;;;15.85;5.65;;;12.50;97.50;;;;;;7383695;19;20378;-74
2023/11/08 09:32:48;;;;;;;11.23;5.28;;;12.50;97.50;;;;;;7382129;19;20015;-74
2023/11/08 09:35:21;;;;;;;13.82;5.22;;;12.60;97.30;;;;;;7383388;19;20484;-74
2023/11/08 09:37:54;;;;;;;6.70;3.92;;;12.60;97.30;;;;;;7402917;19;20438;-74
2023/11/08 09:40:23;;;;;;;15.65;4.40;;;12.60;97.20;;;;;;7382448;19;20011;-74
2023/11/08 09:42:53;;;;;;;10.65;4.38;;;12.60;97.50;;;;;;7382881;19;20003;-74
2023/11/08 09:45:30;;;;;;;9.05;3.70;;;12.80;97.10;;;;;;7383144;19;20056;-74
2023/11/08 09:47:59;;;;;;;7.53;3.17;;;12.90;96.90;;;;;;7382981;19;19999;-74
2023/11/08 09:50:33;;;;;;;14.07;3.30;;;12.80;97.10;;;;;;7382766;19;20003;-74
2023/11/08 09:53:02;;;;;;;11.63;3.35;;;12.90;96.80;;;;;;7389794;19;20011;-73
2023/11/08 09:55:30;;;;;;;9.50;3.28;;;12.90;96.80;;;;;;7404535;19;20007;-74
2023/11/08 09:58:01;;;;;;;12.10;3.47;;;13.00;96.60;;;;;;7381491;19;20006;-74
2023/11/08 10:00:30;;;;;;;5.07;2.70;;;13.00;96.60;;;;;;7380268;19;20413;-74
2023/11/08 10:03:02;;;;;;;10.30;3.70;;;13.00;96.50;;;;;;7382696;19;20106;-74
2023/11/08 10:05:36;;;;;;;;;;;13.00;96.60;;;;;;7382474;19;20272;-73
2023/11/08 10:08:10;;;;;;;7.20;3.00;;;13.00;96.70;;;;;;7382058;19;20251;-74
2023/11/08 10:10:42;;;;;;;9.52;3.13;;;13.00;96.80;;;;;;7403648;19;20027;-74
2023/11/08 10:13:11;;;;;;;12.55;2.97;;;13.10;96.80;;;;;;7381493;19;20006;-73
2023/11/08 10:15:39;;;;;;;8.07;2.60;;;13.10;96.70;;;;;;7381863;19;20394;-74
2023/11/08 10:18:10;;;;;;;11.82;3.38;;;13.20;96.60;;;;;;7381473;19;20070;-74
2023/11/08 10:20:41;;;;;;;10.18;2.88;;;13.20;96.60;;;;;;7382044;19;20011;-75
2023/11/08 10:23:10;;;;;;;9.50;2.33;;;13.10;96.60;;;;;;7384866;19;20058;-75
2023/11/08 10:25:39;;;;;;;12.52;2.53;;;13.20;96.80;;;;;;7414371;19;20010;-75
2023/11/08 10:28:10;;;;;;;7.50;2.40;;;13.30;96.80;;;;;;7388663;19;20132;-75
2023/11/08 10:30:40;;;;;;;9.35;2.60;;;13.40;96.60;;;;;;7388070;19;20027;-74
2023/11/08 10:33:09;;;;;;;9.10;2.42;;;13.50;96.70;;;;;;7389252;19;20090;-74
2023/11/08 10:35:42;;;;;;;8.85;2.50;;;13.60;96.60;;;;;;7389439;19;20305;-74
2023/11/08 10:38:13;;;;;;;7.47;2.20;;;13.70;96.20;;;;;;7385895;19;20011;-74
2023/11/08 10:40:46;;;;;;;13.55;2.33;;;13.70;95.80;;;;;;7404816;19;20238;-75
2023/11/08 10:43:23;;;;;;;8.38;2.22;;;13.60;95.90;;;;;;7381774;19;20058;-75
2023/11/08 10:45:52;;;;;;;14.15;2.40;;;13.70;96.10;;;;;;7381372;19;20425;-74
2023/11/08 10:48:24;;;;;;;7.57;2.13;;;13.40;96.20;;;;;;7381812;19;19998;-74
2023/11/08 10:50:56;;;;;;;9.50;2.17;;;13.50;96.30;;;;;;7381164;19;20403;-74
2023/11/08 10:53:25;;;;;;;11.55;2.53;;;13.50;96.30;;;;;;7380779;19;20091;-74
2023/11/08 10:55:55;;;;;;;6.68;2.42;;;13.60;96.30;;;;;;7402143;19;20003;-74
2023/11/08 10:58:26;;;;;;;8.93;2.30;;;13.60;96.20;;;;;;7379373;19;20006;-73
2023/11/08 11:00:59;;;;;;;6.72;1.85;;;13.50;96.50;;;;;;7379571;19;20413;-73
2023/11/08 11:03:30;;;;;;;4.95;1.60;;;13.40;96.60;;;;;;7380311;19;20027;-73
2023/11/08 11:06:05;;;;;;;7.47;2.35;;;13.30;96.60;;;;;;7380135;19;20284;-73
2023/11/08 11:08:38;;;;;;;4.68;1.77;;;13.20;97.00;;;;;;7380146;19;20576;-73
2023/11/08 11:11:08;;;;;;;5.40;1.65;;;13.40;97.00;;;;;;7380193;19;20018;-74
2023/11/08 11:13:45;;;;;;;6.95;1.92;;;13.60;96.80;;;;;;7401664;19;20027;-73
2023/11/08 11:16:19;;;;;;;6.57;2.08;;;13.70;96.60;;;;;;7378873;19;20015;-74
2023/11/08 11:18:53;;;;;;;6.75;1.90;;;13.80;96.40;;;;;;7378592;19;20082;-73
2023/11/08 11:21:28;;;;;;;5.78;1.95;;;13.80;96.40;;;;;;7380256;19;20264;-73
2023/11/08 11:23:57;;;;;;;9.57;1.67;;;13.90;96.20;;;;;;7379785;19;20007;-74
2023/11/08 11:26:47;;;;;;;5.90;1.80;;;13.90;96.10;;;;;;7378133;19;20013;-74
2023/11/08 11:29:19;;;;;;;7.22;1.98;;;13.90;96.20;;;;;;7379186;19;20015;-74
2023/11/08 11:31:49;;;;;;;7.32;1.67;;;13.90;96.10;;;;;;7401775;19;20218;-75
2023/11/08 11:34:47;;;;;;;5.18;1.88;;;13.90;96.20;;;;;;7378535;19;20013;-74
2023/11/08 11:37:22;;;;;;;6.57;1.88;;;13.80;96.50;;;;;;7377358;19;20083;-74
2023/11/08 11:40:14;;;;;;;9.75;1.80;;;13.80;96.40;;;;;;7377334;19;20003;-74
2023/11/08 11:42:45;;;;;;;9.68;1.70;;;13.90;96.60;;;;;;7378642;19;20003;-75
2023/11/08 11:45:16;;;;;;;6.20;1.80;;;13.90;96.70;;;;;;7378956;19;20079;-74
2023/11/08 11:47:45;;;;;;;6.85;2.38;;;14.00;96.70;;;;;;7378548;19;20272;-75
2023/11/08 11:50:15;;;;;;;7.50;1.63;;;14.00;96.60;;;;;;7378175;19;20366;-74
2023/11/08 11:52:46;;;;;;;8.52;1.88;;;14.10;96.70;;;;;;7400417;19;20006;-74
2023/11/08 11:55:15;;;;;;;3.55;1.73;;;14.10;96.40;;;;;;7377987;19;20022;-73
2023/11/08 11:57:44;;;;;;;9.75;2.22;;;14.10;96.60;;;;;;7378362;19;20280;-74
2023/11/08 12:00:14;;;;;;;5.25;1.45;;;14.10;96.50;;;;;;7377642;19;20370;-74
2023/11/08 12:02:43;;;;;;;7.30;1.45;;;14.20;96.50;;;;;;7378595;19;19999;-74
2023/11/08 12:05:12;;;;;;;8.35;1.70;;;14.30;96.40;;;;;;7377940;19;20362;-73
2023/11/08 12:07:41;;;;;;;4.75;1.90;;;14.40;96.20;;;;;;7399685;19;20011;-74
2023/11/08 12:10:18;;;;;;;9.00;1.90;;;14.40;95.90;;;;;;7378009;19;20015;-74
2023/11/08 12:12:47;;;;;;;6.20;1.55;;;14.30;96.20;;;;;;7378070;19;20023;-74
2023/11/08 12:15:18;;;;;;;7.95;1.90;;;14.40;96.20;;;;;;7377234;19;20367;-74
2023/11/08 12:17:50;;;;;;;6.07;1.83;;;14.30;96.10;;;;;;7380459;19;20002;-75
2023/11/08 12:20:20;;;;;;;10.00;1.90;;;14.50;96.20;;;;;;7376951;19;20027;-74
2023/11/08 12:22:50;;;;;;;11.50;2.00;;;14.50;96.10;;;;;;7398633;19;20006;-77
2023/11/08 12:25:23;;;;;;;6.07;1.65;;;14.50;96.10;;;;;;7376638;19;20272;-74
2023/11/08 12:27:52;;;;;;;7.55;1.55;;;14.60;96.10;;;;;;7377379;19;20011;-74
2023/11/08 12:30:23;;;;;;;10.68;2.03;;;14.60;95.90;;;;;;7377912;19;20062;-73
2023/11/08 12:32:52;;;;;;;5.78;1.80;;;14.60;96.00;;;;;;7378091;19;20013;-74
2023/11/08 12:35:21;;;;;;;12.32;2.40;;;14.60;96.10;;;;;;7382126;19;20283;-73
2023/11/08 12:37:50;;;;;;;7.80;2.13;;;14.60;96.20;;;;;;7398239;19;20015;-73
2023/11/08 12:40:23;;;;;;;8.20;1.40;;;14.60;96.10;;;;;;7375728;19;20027;-74
2023/11/08 12:42:53;;;;;;;13.00;1.75;;;14.50;96.20;;;;;;7377064;19;20006;-73
2023/11/08 12:45:31;;;;;;;5.35;1.95;;;14.50;96.30;;;;;;7377586;19;20002;-74
2023/11/08 12:48:07;;;;;;;4.70;1.77;;;14.60;96.40;;;;;;7377977;19;20088;-74
2023/11/08 12:50:36;;;;;;;13.15;1.30;;;14.40;96.30;;;;;;7376074;19;20010;-75
2023/11/08 12:53:07;;;;;;;9.40;1.73;;;14.50;96.30;;;;;;7376568;19;20014;-73
2023/11/08 12:55:44;;;;;;;6.53;1.58;;;14.60;96.20;;;;;;7398578;19;20027;-74